Masontown, Pennsylvania
Current Conditions -  °F | °C
As of 1:53 PM on Tuesday 27 Jan 2015 (Local Time) from KMGW Reporting Station
Light Snow Light Snow  
Wind Chill: 16°   Ceiling: 1600
Heat Index: 23°   Visibility: 3mi
Dew Point: 14°   Wind: 6mph
Humidity: 68%   Direction: 310°NW
Pressure: 29.94"   Gusts: NA
Location:  39.85°N, 79.9°W
Report Text: KMGW 271853Z 31005KT 3SM -SN BKN016 BKN022 OVC029 M05/M10 A2994 RMK AO2 SLP155 P0000 T10501100
Loading
Personal Weather Stations






























Interactive Weather Map New forecast layout! Learn more

10-Day Weather Forecast

Advertisements
Track Severe Weather on mobile